createdAt,value
2018-08-13T00:01:38.931Z,97529.80
2018-08-13T00:04:07.221Z,97526.80
2018-08-13T00:06:35.849Z,97529.06
2018-08-13T00:09:06.013Z,97523.56
2018-08-13T00:11:34.526Z,97514.53
2018-08-13T00:14:02.699Z,97509.63
2018-08-13T00:16:30.998Z,97514.80
2018-08-13T00:18:59.178Z,97509.09
2018-08-13T00:21:27.370Z,97516.81
2018-08-13T00:23:55.669Z,97511.83
2018-08-13T00:26:23.902Z,97511.41
2018-08-13T00:28:52.218Z,97497.48
2018-08-13T00:31:20.446Z,97500.24
2018-08-13T00:33:48.622Z,97501.66
2018-08-13T00:36:17.350Z,97502.84
2018-08-13T00:38:45.521Z,97499.13
2018-08-13T00:41:13.704Z,97496.74
2018-08-13T00:43:41.894Z,97498.31
2018-08-13T00:46:10.109Z,97496.36
2018-08-13T00:48:38.541Z,97497.81
2018-08-13T00:51:06.733Z,97495.85
2018-08-13T00:53:34.931Z,97498.98
2018-08-13T00:56:03.231Z,97494.62
2018-08-13T00:58:31.465Z,97496.00
2018-08-13T01:00:59.670Z,97490.30
2018-08-13T01:03:28.204Z,97490.16
2018-08-13T01:05:56.402Z,97488.95
2018-08-13T01:08:24.590Z,97485.63
2018-08-13T01:10:52.856Z,97494.67
2018-08-13T01:13:21.045Z,97487.60
2018-08-13T01:15:49.228Z,97487.20
2018-08-13T01:18:17.434Z,97483.66
2018-08-13T01:20:45.702Z,97483.66
2018-08-13T01:23:13.876Z,97483.28
2018-08-13T01:25:42.041Z,97481.31
2018-08-13T01:28:10.242Z,97487.00
2018-08-13T01:30:38.468Z,97486.63
2018-08-13T01:33:06.818Z,97486.23
2018-08-13T01:35:35.009Z,97482.48
2018-08-13T01:38:03.312Z,97483.46
2018-08-13T01:40:31.542Z,97484.25
2018-08-13T01:42:59.770Z,97484.28
2018-08-13T01:45:27.946Z,97484.67
2018-08-13T01:47:56.244Z,97481.55
2018-08-13T01:50:24.442Z,97486.67
2018-08-13T01:52:52.633Z,97482.55
2018-08-13T01:55:20.817Z,97482.56
2018-08-13T01:57:49.025Z,97492.00
2018-08-13T02:00:17.522Z,97485.30
2018-08-13T02:02:45.721Z,97484.52
2018-08-13T02:05:13.941Z,97486.09
2018-08-13T02:07:42.237Z,97482.76
2018-08-13T02:10:11.869Z,97485.30
2018-08-13T02:12:40.546Z,97481.78
2018-08-13T02:15:08.850Z,97480.61
2018-08-13T02:17:37.160Z,97481.61
2018-08-13T02:20:07.172Z,97488.67
2018-08-13T02:22:35.490Z,97485.52
2018-08-13T02:25:04.448Z,97477.65
2018-08-13T02:27:32.650Z,97471.17
2018-08-13T02:30:00.922Z,97470.38
2018-08-13T02:32:29.154Z,97466.06
2018-08-13T02:34:57.367Z,97470.20
2018-08-13T02:37:25.618Z,97465.30
2018-08-13T02:39:53.882Z,97461.95
2018-08-13T02:42:22.185Z,97463.31
2018-08-13T02:44:50.388Z,97456.84
2018-08-13T02:47:18.613Z,97461.17
2018-08-13T02:49:46.806Z,97457.06
2018-08-13T02:52:14.977Z,97454.32
2018-08-13T02:54:43.493Z,97452.94
2018-08-13T02:57:11.697Z,97446.64
2018-08-13T02:59:39.996Z,97455.67
2018-08-13T03:02:08.253Z,97450.56
2018-08-13T03:04:36.533Z,97447.22
2018-08-13T03:07:04.767Z,97443.09
2018-08-13T03:09:32.949Z,97447.05
2018-08-13T03:12:01.119Z,97454.70
2018-08-13T03:14:29.342Z,97449.77
2018-08-13T03:16:57.515Z,97453.31
2018-08-13T03:19:25.970Z,97451.95
2018-08-13T03:21:54.600Z,97451.18
2018-08-13T03:24:22.865Z,97449.80
2018-08-13T03:26:51.050Z,97454.51
2018-08-13T03:29:19.308Z,97457.05
2018-08-13T03:31:47.518Z,97449.59
2018-08-13T03:34:15.706Z,97450.98
2018-08-13T03:36:43.896Z,97448.61
2018-08-13T03:39:13.486Z,97453.92
2018-08-13T03:41:42.842Z,97460.41
2018-08-13T03:44:11.885Z,97462.16
2018-08-13T03:46:40.058Z,97463.50
2018-08-13T03:49:09.569Z,97464.09
2018-08-13T03:51:37.742Z,97470.37
2018-08-13T03:54:05.950Z,97461.93
2018-08-13T03:56:34.149Z,97454.08
2018-08-13T03:59:02.445Z,97453.29
2018-08-13T04:01:30.605Z,97451.13
2018-08-13T04:03:58.885Z,97451.16
2018-08-13T04:06:27.205Z,97448.05
2018-08-13T04:08:55.388Z,97446.64
2018-08-13T04:11:23.936Z,97457.84
2018-08-13T04:13:52.193Z,97458.64
2018-08-13T04:16:20.369Z,97449.02
2018-08-13T04:18:48.587Z,97449.41
2018-08-13T04:21:16.776Z,97447.05
2018-08-13T04:23:44.971Z,97455.11
2018-08-13T04:26:13.162Z,97451.56
2018-08-13T04:28:41.432Z,97447.83
2018-08-13T04:31:09.708Z,97453.52
2018-08-13T04:33:37.991Z,97454.89
2018-08-13T04:36:06.168Z,97456.47
2018-08-13T04:38:34.377Z,97458.81
2018-08-13T04:41:02.890Z,97456.83
2018-08-13T04:43:31.098Z,97457.80
2018-08-13T04:45:59.366Z,97463.30
2018-08-13T04:48:27.546Z,97462.23
2018-08-13T04:50:55.802Z,97455.97
2018-08-13T04:53:23.994Z,97462.83
2018-08-13T04:55:52.497Z,97458.48
2018-08-13T04:58:20.688Z,97458.03
2018-08-13T05:00:49.453Z,97457.64
2018-08-13T05:03:17.649Z,97462.52
2018-08-13T05:05:45.866Z,97463.09
2018-08-13T05:08:14.064Z,97460.78
2018-08-13T05:10:42.386Z,97462.16
2018-08-13T05:13:10.961Z,97463.34
2018-08-13T05:15:39.117Z,97462.73
2018-08-13T05:18:07.331Z,97466.25
2018-08-13T05:20:35.529Z,97456.75
2018-08-13T05:23:04.121Z,97460.83
2018-08-13T05:25:32.330Z,97458.72
2018-08-13T05:28:00.513Z,97460.02
2018-08-13T05:30:28.780Z,97457.45
2018-08-13T05:32:57.000Z,97459.66
2018-08-13T05:35:25.208Z,97460.45
2018-08-13T05:37:53.465Z,97465.34
2018-08-13T05:40:21.763Z,97453.45
2018-08-13T05:42:50.119Z,97454.64
2018-08-13T05:45:18.549Z,97446.33
2018-08-13T05:47:47.144Z,97442.45
2018-08-13T05:50:15.542Z,97441.38
2018-08-13T05:52:43.742Z,97439.50
2018-08-13T05:55:12.015Z,97442.38
2018-08-13T05:57:40.314Z,97444.84
2018-08-13T06:00:10.371Z,97452.16
2018-08-13T06:02:40.172Z,97450.00
2018-08-13T06:05:08.662Z,97453.20
2018-08-13T06:07:36.842Z,97449.30
2018-08-13T06:10:07.618Z,97446.58
2018-08-13T06:12:35.877Z,97444.57
2018-08-13T06:15:06.038Z,97447.59
2018-08-13T06:17:34.266Z,97437.97
2018-08-13T06:20:02.580Z,97436.02
2018-08-13T06:22:30.762Z,97444.05
2018-08-13T06:24:59.057Z,97437.78
2018-08-13T06:27:27.441Z,97446.40
2018-08-13T06:29:55.677Z,97445.46
2018-08-13T06:32:25.313Z,97443.73
2018-08-13T06:34:53.617Z,97439.41
2018-08-13T06:37:22.022Z,97433.80
2018-08-13T06:39:50.461Z,97436.92
2018-08-13T06:42:19.007Z,97430.89
2018-08-13T06:44:47.164Z,97427.41
2018-08-13T06:47:15.412Z,97422.00
2018-08-13T06:49:43.712Z,97421.22
2018-08-13T06:52:11.944Z,97426.70
2018-08-13T06:54:40.546Z,97436.98
2018-08-13T06:57:09.587Z,97436.14
2018-08-13T06:59:37.884Z,97432.70
2018-08-13T07:02:06.200Z,97434.93
2018-08-13T07:04:34.428Z,97444.31
2018-08-13T07:07:03.236Z,97438.83
2018-08-13T07:09:38.038Z,97437.47
2018-08-13T07:12:06.470Z,97431.13
2018-08-13T07:14:34.764Z,97433.89
2018-08-13T07:17:03.073Z,97427.96
2018-08-13T07:19:31.327Z,97423.91
2018-08-13T07:21:59.722Z,97425.05
2018-08-13T07:24:27.841Z,97428.27
2018-08-13T07:26:56.313Z,97436.83
2018-08-13T07:29:24.513Z,97428.31
2018-08-13T07:31:52.705Z,97426.00
2018-08-13T07:34:20.907Z,97417.81
2018-08-13T07:36:49.163Z,97419.06
2018-08-13T07:39:17.364Z,97417.78
2018-08-13T07:41:45.689Z,97415.54
2018-08-13T07:44:14.096Z,97406.92
2018-08-13T07:46:42.412Z,97406.33
2018-08-13T07:49:10.586Z,97400.88
2018-08-13T07:51:39.044Z,97398.34
2018-08-13T07:54:07.201Z,97402.66
2018-08-13T07:56:35.392Z,97396.56
2018-08-13T07:59:03.639Z,97406.02
2018-08-13T08:01:31.955Z,97397.40
2018-08-13T08:04:00.244Z,97401.31
2018-08-13T08:06:28.804Z,97401.59
2018-08-13T08:08:57.047Z,97397.41
2018-08-13T08:11:25.278Z,97397.30
2018-08-13T08:13:53.446Z,97398.02
2018-08-13T08:16:21.670Z,97402.00
2018-08-13T08:18:50.216Z,97402.94
2018-08-13T08:21:18.777Z,97394.68
2018-08-13T08:23:47.072Z,97385.84
2018-08-13T08:26:15.254Z,97391.38
2018-08-13T08:28:43.469Z,97391.34
2018-08-13T08:31:11.753Z,97390.80
2018-08-13T08:33:40.026Z,97393.19
2018-08-13T08:36:08.293Z,97402.37
2018-08-13T08:38:36.497Z,97391.02
2018-08-13T08:41:04.717Z,97389.30
2018-08-13T08:43:32.945Z,97385.88
2018-08-13T08:46:01.273Z,97388.05
2018-08-13T08:48:29.324Z,97380.08
2018-08-13T08:50:57.765Z,97373.63
2018-08-13T08:53:26.403Z,97375.40
2018-08-13T08:55:54.523Z,97369.97
2018-08-13T08:58:22.696Z,97365.00
2018-08-13T09:00:51.041Z,97366.94
2018-08-13T09:03:19.226Z,97361.92
2018-08-13T09:05:47.469Z,97367.22
2018-08-13T09:08:15.789Z,97358.30
2018-08-13T09:10:43.913Z,97362.02
2018-08-13T09:13:12.694Z,97357.38
2018-08-13T09:15:41.004Z,97356.82
2018-08-13T09:18:20.618Z,97358.49
2018-08-13T09:21:00.083Z,97362.04
2018-08-13T09:23:39.604Z,97357.05
2018-08-13T09:26:19.062Z,97357.48
2018-08-13T09:28:58.608Z,97357.20
2018-08-13T09:31:38.216Z,97360.40
2018-08-13T09:34:17.851Z,97359.56
2018-08-13T09:36:46.359Z,97359.52
2018-08-13T09:39:14.874Z,97359.72
2018-08-13T09:41:43.266Z,97355.87
2018-08-13T09:44:11.638Z,97357.11
2018-08-13T09:46:39.930Z,97354.78
2018-08-13T09:49:08.162Z,97354.97
2018-08-13T09:51:36.429Z,97350.09
2018-08-13T09:54:05.005Z,97343.77
2018-08-13T09:56:33.205Z,97355.94
2018-08-13T09:59:01.543Z,97342.88
2018-08-13T10:01:29.749Z,97357.63
2018-08-13T10:03:58.267Z,97349.90
2018-08-13T10:06:26.475Z,97348.84
2018-08-13T10:08:55.145Z,97338.59
2018-08-13T10:11:23.394Z,97339.08
2018-08-13T10:13:51.614Z,97339.64
2018-08-13T10:16:19.856Z,97337.67
2018-08-13T10:18:48.380Z,97332.05
2018-08-13T10:21:16.896Z,97321.91
2018-08-13T10:23:45.170Z,97319.03
2018-08-13T10:26:13.494Z,97311.11
2018-08-13T10:28:42.131Z,97305.97
2018-08-13T10:31:10.530Z,97295.25
2018-08-13T10:33:38.843Z,97293.00
2018-08-13T10:36:07.058Z,97296.66
2018-08-13T10:38:35.344Z,97293.01
2018-08-13T10:41:03.673Z,97288.14
2018-08-13T10:43:32.232Z,97290.25
2018-08-13T10:46:00.477Z,97285.28
2018-08-13T10:48:28.961Z,97287.50
2018-08-13T10:50:57.766Z,97272.63
2018-08-13T10:53:27.935Z,97267.18
2018-08-13T10:55:56.195Z,97273.52
2018-08-13T10:58:24.493Z,97271.38
2018-08-13T11:00:52.687Z,97264.55
2018-08-13T11:03:21.025Z,97255.15
2018-08-13T11:05:49.347Z,97247.16
2018-08-13T11:08:17.759Z,97240.66
2018-08-13T11:10:46.065Z,97258.23
2018-08-13T11:13:14.421Z,97253.81
2018-08-13T11:15:42.700Z,97245.27
2018-08-13T11:18:10.962Z,97240.98
2018-08-13T11:20:39.533Z,97248.00
2018-08-13T11:23:07.785Z,97246.39
2018-08-13T11:25:36.034Z,97239.64
2018-08-13T11:28:04.272Z,97244.20
2018-08-13T11:30:32.510Z,97246.83
2018-08-13T11:33:00.694Z,97237.74
2018-08-13T11:35:28.896Z,97240.03
2018-08-13T11:37:57.154Z,97237.23
2018-08-13T11:40:25.347Z,97228.72
2018-08-13T11:42:53.534Z,97231.17
2018-08-13T11:45:22.035Z,97236.72
2018-08-13T11:47:50.569Z,97235.54
2018-08-13T11:50:20.068Z,97224.69
2018-08-13T11:52:49.516Z,97224.70
2018-08-13T11:55:18.830Z,97212.97
2018-08-13T11:57:48.028Z,97216.14
2018-08-13T12:00:16.285Z,97217.98
2018-08-13T12:02:44.801Z,97223.11
2018-08-13T12:05:14.800Z,97211.63
2018-08-13T12:07:43.781Z,97209.84
2018-08-13T12:10:13.037Z,97213.14
2018-08-13T12:12:42.081Z,97210.48
2018-08-13T12:15:11.373Z,97204.54
2018-08-13T12:17:39.961Z,97188.97
2018-08-13T12:20:12.069Z,97181.24
2018-08-13T12:22:40.253Z,97196.17
2018-08-13T12:25:08.997Z,97187.05
2018-08-13T12:27:37.219Z,97188.06
2018-08-13T12:30:07.705Z,97184.60
2018-08-13T12:32:35.853Z,97186.41
2018-08-13T12:35:04.841Z,97173.03
2018-08-13T12:37:33.080Z,97175.21
2018-08-13T12:40:01.354Z,97181.20
2018-08-13T12:42:29.562Z,97179.89
2018-08-13T12:44:57.782Z,97174.95
2018-08-13T12:47:26.130Z,97166.89
2018-08-13T12:49:54.322Z,97160.41
2018-08-13T12:52:22.528Z,97162.94
2018-08-13T12:54:50.806Z,97166.91
2018-08-13T12:57:19.023Z,97170.58
2018-08-13T12:59:47.247Z,97174.78
2018-08-13T13:02:15.421Z,97158.53
2018-08-13T13:04:43.798Z,97164.05
2018-08-13T13:07:12.082Z,97169.44
2018-08-13T13:09:40.358Z,97151.56
2018-08-13T13:12:08.658Z,97153.55
2018-08-13T13:14:36.908Z,97152.86
2018-08-13T13:17:05.085Z,97144.11
2018-08-13T13:19:33.266Z,97141.52
2018-08-13T13:22:01.446Z,97153.22
2018-08-13T13:24:29.640Z,97137.91
2018-08-13T13:26:57.843Z,97143.10
2018-08-13T13:29:26.105Z,97140.44
2018-08-13T13:31:54.432Z,97143.48
2018-08-13T13:34:22.633Z,97139.56
2018-08-13T13:36:50.886Z,97133.31
2018-08-13T13:39:19.054Z,97140.55
2018-08-13T13:41:47.236Z,97138.64
2018-08-13T13:44:15.620Z,97107.47
2018-08-13T13:46:43.821Z,97122.22
2018-08-13T13:49:12.082Z,97122.04
2018-08-13T13:51:40.270Z,97111.58
2018-08-13T13:54:08.565Z,97099.48
2018-08-13T13:56:36.811Z,97092.53
2018-08-13T13:59:05.402Z,97132.67
2018-08-13T14:01:33.585Z,97121.48
2018-08-13T14:04:01.825Z,97118.66
2018-08-13T14:06:30.508Z,97105.63
2018-08-13T14:08:58.717Z,97108.42
2018-08-13T14:11:26.908Z,97102.28
2018-08-13T14:13:55.167Z,97091.66
2018-08-13T14:16:23.359Z,97079.98
2018-08-13T14:18:51.593Z,97069.93
2018-08-13T14:21:19.788Z,97072.37
2018-08-13T14:23:47.979Z,97073.20
2018-08-13T14:26:16.227Z,97086.33
2018-08-13T14:28:44.490Z,97077.92
2018-08-13T14:31:12.766Z,97080.66
2018-08-13T14:33:40.949Z,97073.88
2018-08-13T14:36:09.148Z,97073.84
2018-08-13T14:38:37.423Z,97070.41
2018-08-13T14:41:05.896Z,97062.14
2018-08-13T14:43:34.162Z,97061.67
2018-08-13T14:46:02.438Z,97070.22
2018-08-13T14:48:30.690Z,97063.38
2018-08-13T14:50:58.897Z,97063.45
2018-08-13T14:53:27.138Z,97066.43
2018-08-13T14:55:55.389Z,97072.30
2018-08-13T14:58:23.658Z,97067.95
2018-08-13T15:00:51.838Z,97071.27
2018-08-13T15:03:20.050Z,97074.71
2018-08-13T15:05:48.500Z,97078.55
2018-08-13T15:08:16.696Z,97092.24
2018-08-13T15:10:44.882Z,97106.34
2018-08-13T15:13:13.126Z,97101.36
2018-08-13T15:15:41.321Z,97102.95
2018-08-13T15:18:09.821Z,97106.33
2018-08-13T15:20:38.083Z,97103.42
2018-08-13T15:23:06.363Z,97105.59
2018-08-13T15:25:34.557Z,97120.48
2018-08-13T15:28:03.225Z,97117.77
2018-08-13T15:30:31.401Z,97119.89
2018-08-13T15:32:59.608Z,97127.31
2018-08-13T15:35:27.802Z,97131.64
2018-08-13T15:37:56.019Z,97146.38
2018-08-13T15:40:24.393Z,97153.11
2018-08-13T15:42:52.572Z,97154.70
2018-08-13T15:45:21.935Z,97158.97
2018-08-13T15:47:50.354Z,97166.20
2018-08-13T15:50:20.739Z,97163.49
2018-08-13T15:52:49.302Z,97168.38
2018-08-13T15:55:17.514Z,97161.57
2018-08-13T15:57:45.983Z,97166.77
2018-08-13T16:00:23.374Z,97166.42
2018-08-13T16:02:52.240Z,97170.61
2018-08-13T16:05:20.870Z,97170.00
2018-08-13T16:07:49.414Z,97180.42
2018-08-13T16:10:18.190Z,97178.77
2018-08-13T16:12:46.557Z,97174.22
2018-08-13T16:15:14.866Z,97178.50
2018-08-13T16:17:43.225Z,97185.42
2018-08-13T16:20:16.523Z,97193.05
2018-08-13T16:22:45.605Z,97192.53
2018-08-13T16:25:14.293Z,97188.76
2018-08-13T16:27:43.205Z,97208.27
2018-08-13T16:30:14.439Z,97208.33
2018-08-13T16:32:42.653Z,97216.42
2018-08-13T16:35:10.949Z,97204.07
2018-08-13T16:37:39.255Z,97211.80
2018-08-13T16:40:07.544Z,97210.50
2018-08-13T16:42:35.813Z,97211.56
2018-08-13T16:45:04.709Z,97222.76
2018-08-13T16:47:32.967Z,97235.39
2018-08-13T16:50:01.169Z,97262.52
2018-08-13T16:52:29.424Z,97270.44
2018-08-13T16:54:57.810Z,97284.68
2018-08-13T16:57:26.017Z,97277.38
2018-08-13T16:59:54.239Z,97280.89
2018-08-13T17:02:22.565Z,97293.98
2018-08-13T17:04:50.718Z,97297.70
2018-08-13T17:07:18.900Z,97307.70
2018-08-13T17:09:47.100Z,97311.50
2018-08-13T17:12:15.358Z,97316.77
2018-08-13T17:14:43.631Z,97321.13
2018-08-13T17:17:11.837Z,97334.48
2018-08-13T17:19:40.047Z,97346.50
2018-08-13T17:22:08.649Z,97344.91
2018-08-13T17:24:37.062Z,97350.83
2018-08-13T17:27:05.286Z,97363.41
2018-08-13T17:29:33.479Z,97370.92
2018-08-13T17:32:01.741Z,97362.27
2018-08-13T17:34:29.933Z,98081.17
2018-08-13T17:36:58.153Z,97393.47
2018-08-13T17:39:27.312Z,97393.74
2018-08-13T17:41:55.531Z,97401.45
2018-08-13T17:44:23.793Z,97416.03
2018-08-13T17:46:52.001Z,97410.81
2018-08-13T17:49:20.229Z,97424.06
2018-08-13T17:51:48.561Z,97425.08
2018-08-13T17:54:16.877Z,97437.56
2018-08-13T17:56:45.123Z,97433.70
2018-08-13T17:59:13.335Z,97441.42
2018-08-13T18:01:41.721Z,97431.44
2018-08-13T18:04:09.946Z,97431.65
2018-08-13T18:06:38.174Z,97423.72
2018-08-13T18:09:09.901Z,97412.69
2018-08-13T18:11:38.268Z,97402.56
2018-08-13T18:14:07.042Z,97404.86
2018-08-13T18:16:35.503Z,97409.95
2018-08-13T18:19:03.912Z,97416.85
2018-08-13T18:21:32.116Z,97425.16
2018-08-13T18:24:00.696Z,97433.29
2018-08-13T18:26:29.088Z,97451.52
2018-08-13T18:28:57.886Z,97464.39
2018-08-13T18:31:26.114Z,97466.61
2018-08-13T18:33:54.647Z,97469.50
2018-08-13T18:36:23.029Z,97467.52
2018-08-13T18:38:51.327Z,97480.56
2018-08-13T18:41:19.713Z,97488.59
2018-08-13T18:43:47.961Z,97482.21
2018-08-13T18:46:16.310Z,97481.84
2018-08-13T18:48:44.645Z,97487.49
2018-08-13T18:51:14.097Z,97488.45
2018-08-13T18:53:42.362Z,97496.45
2018-08-13T18:56:10.558Z,97495.84
2018-08-13T18:58:38.838Z,97488.24
2018-08-13T19:01:07.162Z,97489.45
2018-08-13T19:03:35.368Z,97491.30
2018-08-13T19:06:03.679Z,97486.83
2018-08-13T19:08:32.410Z,97479.05
2018-08-13T19:11:00.742Z,97480.64
2018-08-13T19:13:29.322Z,97473.48
2018-08-13T19:15:57.855Z,97480.29
2018-08-13T19:18:26.194Z,97481.84
2018-08-13T19:20:54.308Z,97487.27
2018-08-13T19:23:22.822Z,97487.91
2018-08-13T19:25:51.408Z,97487.73
2018-08-13T19:28:19.938Z,97479.79
2018-08-13T19:30:48.326Z,97473.03
2018-08-13T19:33:16.588Z,97468.54
2018-08-13T19:35:44.779Z,97470.83
2018-08-13T19:38:13.016Z,97470.48
2018-08-13T19:40:41.305Z,97458.38
2018-08-13T19:43:09.489Z,97448.58
2018-08-13T19:45:37.903Z,97440.45
2018-08-13T19:48:06.106Z,97431.97
2018-08-13T19:50:34.336Z,97435.80
2018-08-13T19:53:02.791Z,97430.86
2018-08-13T19:55:31.066Z,97437.13
2018-08-13T19:57:59.233Z,97434.14
2018-08-13T20:00:29.007Z,97427.94
2018-08-13T20:02:57.252Z,97428.77
2018-08-13T20:05:26.849Z,97424.80
2018-08-13T20:07:57.304Z,97436.04
2018-08-13T20:10:25.519Z,97441.94
2018-08-13T20:12:53.928Z,97446.23
2018-08-13T20:15:22.188Z,97453.52
2018-08-13T20:17:50.521Z,97453.84
2018-08-13T20:20:19.900Z,97459.41
2018-08-13T20:22:48.616Z,97466.17
2018-08-13T20:25:17.766Z,97476.77
2018-08-13T20:27:46.515Z,97492.24
2018-08-13T20:30:16.720Z,97484.53
2018-08-13T20:32:46.265Z,97491.33
2018-08-13T20:35:14.502Z,97490.22
2018-08-13T20:37:42.746Z,97491.52
2018-08-13T20:40:12.928Z,97491.65
2018-08-13T20:42:41.504Z,97503.99
2018-08-13T20:45:12.346Z,97494.78
2018-08-13T20:47:40.623Z,97505.23
2018-08-13T20:50:11.438Z,97509.97
2018-08-13T20:52:39.829Z,97508.92
2018-08-13T20:55:11.161Z,97514.40
2018-08-13T20:57:39.365Z,97517.16
2018-08-13T21:00:09.304Z,97514.30
2018-08-13T21:02:37.921Z,97522.33
2018-08-13T21:05:06.117Z,97529.03
2018-08-13T21:07:34.429Z,97522.00
2018-08-13T21:10:02.996Z,97523.79
2018-08-13T21:12:31.549Z,97528.77
2018-08-13T21:14:59.796Z,97535.86
2018-08-13T21:17:28.009Z,97535.64
2018-08-13T21:19:56.248Z,97535.67
2018-08-13T21:22:24.474Z,97538.72
2018-08-13T21:24:52.674Z,97538.48
2018-08-13T21:27:20.846Z,97536.67
2018-08-13T21:29:49.122Z,97538.55
2018-08-13T21:32:17.358Z,97530.40
2018-08-13T21:34:45.547Z,97529.74
2018-08-13T21:37:13.786Z,97525.52
2018-08-13T21:39:41.982Z,97523.28
2018-08-13T21:42:10.234Z,97524.92
2018-08-13T21:44:38.410Z,97525.10
2018-08-13T21:47:06.878Z,97521.44
2018-08-13T21:49:35.058Z,97518.86
2018-08-13T21:52:03.326Z,97512.72
2018-08-13T21:54:31.546Z,97517.84
2018-08-13T21:56:59.771Z,97519.14
2018-08-13T21:59:27.965Z,97515.08
2018-08-13T22:01:56.554Z,97505.44
2018-08-13T22:04:24.713Z,97501.78
2018-08-13T22:06:53.215Z,97497.30
2018-08-13T22:09:22.001Z,97501.84
2018-08-13T22:11:50.177Z,97507.62
2018-08-13T22:14:18.360Z,97508.97
2018-08-13T22:16:46.579Z,97512.84
2018-08-13T22:19:14.755Z,97517.63
2018-08-13T22:21:43.215Z,97517.58
2018-08-13T22:24:22.722Z,97513.57
2018-08-13T22:26:51.262Z,97510.14
2018-08-13T22:29:19.438Z,97505.45
2018-08-13T22:31:47.670Z,97520.17
2018-08-13T22:34:15.874Z,97522.39
2018-08-13T22:36:44.118Z,97522.95
2018-08-13T22:39:12.428Z,97525.95
2018-08-13T22:41:40.638Z,97533.92
2018-08-13T22:44:08.878Z,97533.27
2018-08-13T22:46:37.360Z,97535.61
2018-08-13T22:49:05.674Z,97537.91
2018-08-13T22:51:34.141Z,97538.28
2018-08-13T22:54:02.381Z,97537.85
2018-08-13T22:56:30.573Z,97533.22
2018-08-13T22:58:59.075Z,97536.16
2018-08-13T23:01:27.295Z,97538.85
2018-08-13T23:03:55.491Z,97539.11
2018-08-13T23:06:23.661Z,97540.02
2018-08-13T23:08:51.875Z,97532.56
2018-08-13T23:11:20.073Z,97539.30
2018-08-13T23:13:48.269Z,97541.46
2018-08-13T23:16:16.543Z,97544.22
2018-08-13T23:18:45.384Z,97544.46
2018-08-13T23:21:13.572Z,97543.23
2018-08-13T23:23:41.844Z,97547.34
2018-08-13T23:26:10.318Z,97543.52
2018-08-13T23:28:38.530Z,97540.96
2018-08-13T23:31:06.722Z,97540.12
2018-08-13T23:33:34.952Z,97541.08
2018-08-13T23:36:03.280Z,97534.91
2018-08-13T23:38:31.518Z,97536.83
2018-08-13T23:40:59.743Z,97533.23
2018-08-13T23:43:27.998Z,97541.59
2018-08-13T23:45:56.478Z,97538.30
2018-08-13T23:48:24.681Z,97535.08
2018-08-13T23:50:52.883Z,97534.88
2018-08-13T23:53:21.116Z,97531.04
2018-08-13T23:55:49.283Z,97533.17
2018-08-13T23:58:17.555Z,97531.30
